sensor_id;sensor_type;location;lat;lon;timestamp;temperature;humidity
30473;DHT22;17263;48.160;11.452;2024-02-21T00:01:04;5.10;99.90
30473;DHT22;17263;48.160;11.452;2024-02-21T00:03:31;5.00;99.90
30473;DHT22;17263;48.160;11.452;2024-02-21T00:05:57;5.10;99.90
30473;DHT22;17263;48.160;11.452;2024-02-21T00:08:23;5.10;99.90
30473;DHT22;17263;48.160;11.452;2024-02-21T00:10:49;5.10;99.90
30473;DHT22;17263;48.160;11.452;2024-02-21T00:13:15;5.10;99.90
30473;DHT22;17263;48.160;11.452;2024-02-21T00:15:41;5.20;99.90
30473;DHT22;17263;48.160;11.452;2024-02-21T00:18:07;5.20;99.90
30473;DHT22;17263;48.160;11.452;2024-02-21T00:20:33;5.20;99.90
30473;DHT22;17263;48.160;11.452;2024-02-21T00:22:59;5.20;99.90
30473;DHT22;17263;48.160;11.452;2024-02-21T00:25:25;5.20;99.90
30473;DHT22;17263;48.160;11.452;2024-02-21T00:27:51;5.20;99.90
30473;DHT22;17263;48.160;11.452;2024-02-21T00:30:17;5.20;99.90
30473;DHT22;17263;48.160;11.452;2024-02-21T00:32:43;5.20;99.90
30473;DHT22;17263;48.160;11.452;2024-02-21T00:35:09;5.20;99.90
30473;DHT22;17263;48.160;11.452;2024-02-21T00:37:35;5.20;99.90
30473;DHT22;17263;48.160;11.452;2024-02-21T00:40:01;5.20;99.90
30473;DHT22;17263;48.160;11.452;2024-02-21T00:42:27;5.10;99.90
30473;DHT22;17263;48.160;11.452;2024-02-21T00:44:53;5.20;99.90
30473;DHT22;17263;48.160;11.452;2024-02-21T00:47:19;5.20;99.90
30473;DHT22;17263;48.160;11.452;2024-02-21T00:49:45;5.10;99.90
30473;DHT22;17263;48.160;11.452;2024-02-21T00:52:11;5.10;99.90
30473;DHT22;17263;48.160;11.452;2024-02-21T00:54:37;5.10;99.90
30473;DHT22;17263;48.160;11.452;2024-02-21T00:57:03;5.10;99.90
30473;DHT22;17263;48.160;11.452;2024-02-21T00:59:29;5.10;99.90
30473;DHT22;17263;48.160;11.452;2024-02-21T01:01:55;5.10;99.90
30473;DHT22;17263;48.160;11.452;2024-02-21T01:04:21;5.00;99.90
30473;DHT22;17263;48.160;11.452;2024-02-21T01:06:50;5.00;99.90
30473;DHT22;17263;48.160;11.452;2024-02-21T01:09:16;5.00;99.90
30473;DHT22;17263;48.160;11.452;2024-02-21T01:11:42;5.00;99.90
30473;DHT22;17263;48.160;11.452;2024-02-21T01:14:08;5.00;99.90
30473;DHT22;17263;48.160;11.452;2024-02-21T01:16:34;5.00;99.90
30473;DHT22;17263;48.160;11.452;2024-02-21T01:19:00;5.00;99.90
30473;DHT22;17263;48.160;11.452;2024-02-21T01:21:26;5.00;99.90
30473;DHT22;17263;48.160;11.452;2024-02-21T01:23:52;5.00;99.90
30473;DHT22;17263;48.160;11.452;2024-02-21T01:26:18;5.00;99.90
30473;DHT22;17263;48.160;11.452;2024-02-21T01:28:44;5.00;99.90
30473;DHT22;17263;48.160;11.452;2024-02-21T01:31:10;5.00;99.90
30473;DHT22;17263;48.160;11.452;2024-02-21T01:33:36;5.00;99.90
30473;DHT22;17263;48.160;11.452;2024-02-21T01:36:05;5.00;99.90
30473;DHT22;17263;48.160;11.452;2024-02-21T01:38:34;5.00;99.90
30473;DHT22;17263;48.160;11.452;2024-02-21T01:41:00;5.00;99.90
30473;DHT22;17263;48.160;11.452;2024-02-21T01:43:26;5.00;99.90
30473;DHT22;17263;48.160;11.452;2024-02-21T01:45:53;5.10;99.90
30473;DHT22;17263;48.160;11.452;2024-02-21T01:48:22;5.10;99.90
30473;DHT22;17263;48.160;11.452;2024-02-21T01:50:49;5.00;99.90
30473;DHT22;17263;48.160;11.452;2024-02-21T01:53:30;5.10;99.90
30473;DHT22;17263;48.160;11.452;2024-02-21T01:55:56;5.00;99.90
30473;DHT22;17263;48.160;11.452;2024-02-21T01:58:23;5.10;99.90
30473;DHT22;17263;48.160;11.452;2024-02-21T02:00:50;5.10;99.90
30473;DHT22;17263;48.160;11.452;2024-02-21T02:03:16;5.10;99.90
30473;DHT22;17263;48.160;11.452;2024-02-21T02:05:47;5.10;99.90
30473;DHT22;17263;48.160;11.452;2024-02-21T02:08:17;5.10;99.90
30473;DHT22;17263;48.160;11.452;2024-02-21T02:10:43;5.10;99.90
30473;DHT22;17263;48.160;11.452;2024-02-21T02:13:10;5.20;99.90
30473;DHT22;17263;48.160;11.452;2024-02-21T02:15:43;5.20;99.90
30473;DHT22;17263;48.160;11.452;2024-02-21T02:18:10;5.20;99.90
30473;DHT22;17263;48.160;11.452;2024-02-21T02:20:37;5.10;99.90
30473;DHT22;17263;48.160;11.452;2024-02-21T02:23:31;5.10;99.90
30473;DHT22;17263;48.160;11.452;2024-02-21T02:26:00;5.00;99.90
30473;DHT22;17263;48.160;11.452;2024-02-21T02:28:27;5.00;99.90
30473;DHT22;17263;48.160;11.452;2024-02-21T02:30:53;5.00;99.90
30473;DHT22;17263;48.160;11.452;2024-02-21T02:33:19;5.00;99.90
30473;DHT22;17263;48.160;11.452;2024-02-21T02:35:45;5.00;99.90
30473;DHT22;17263;48.160;11.452;2024-02-21T02:38:11;5.10;99.90
30473;DHT22;17263;48.160;11.452;2024-02-21T02:40:39;5.10;99.90
30473;DHT22;17263;48.160;11.452;2024-02-21T02:43:06;5.10;99.90
30473;DHT22;17263;48.160;11.452;2024-02-21T02:45:32;5.10;99.90
30473;DHT22;17263;48.160;11.452;2024-02-21T02:47:59;5.10;99.90
30473;DHT22;17263;48.160;11.452;2024-02-21T02:50:26;5.10;99.90
30473;DHT22;17263;48.160;11.452;2024-02-21T02:52:55;5.00;99.90
30473;DHT22;17263;48.160;11.452;2024-02-21T02:55:21;5.10;99.90
30473;DHT22;17263;48.160;11.452;2024-02-21T02:57:47;5.10;99.90
30473;DHT22;17263;48.160;11.452;2024-02-21T03:00:14;5.10;99.90
30473;DHT22;17263;48.160;11.452;2024-02-21T03:02:42;5.10;99.90
30473;DHT22;17263;48.160;11.452;2024-02-21T03:05:15;5.10;99.90
30473;DHT22;17263;48.160;11.452;2024-02-21T03:07:42;5.10;99.90
30473;DHT22;17263;48.160;11.452;2024-02-21T03:10:09;5.10;99.90
30473;DHT22;17263;48.160;11.452;2024-02-21T03:12:35;5.10;99.90
30473;DHT22;17263;48.160;11.452;2024-02-21T03:15:01;5.10;99.90
30473;DHT22;17263;48.160;11.452;2024-02-21T03:17:27;5.10;99.90
30473;DHT22;17263;48.160;11.452;2024-02-21T03:19:54;5.10;99.90
30473;DHT22;17263;48.160;11.452;2024-02-21T03:22:22;5.10;99.90
30473;DHT22;17263;48.160;11.452;2024-02-21T03:24:48;5.10;99.90
30473;DHT22;17263;48.160;11.452;2024-02-21T03:27:14;5.10;99.90
30473;DHT22;17263;48.160;11.452;2024-02-21T03:29:40;5.20;99.90
30473;DHT22;17263;48.160;11.452;2024-02-21T03:32:06;5.20;99.90
30473;DHT22;17263;48.160;11.452;2024-02-21T03:34:32;5.20;99.90
30473;DHT22;17263;48.160;11.452;2024-02-21T03:36:58;5.20;99.90
30473;DHT22;17263;48.160;11.452;2024-02-21T03:39:25;5.20;99.90
30473;DHT22;17263;48.160;11.452;2024-02-21T03:41:51;5.20;99.90
30473;DHT22;17263;48.160;11.452;2024-02-21T03:44:17;5.20;99.90
30473;DHT22;17263;48.160;11.452;2024-02-21T03:46:43;5.20;99.90
30473;DHT22;17263;48.160;11.452;2024-02-21T03:49:09;5.20;99.90
30473;DHT22;17263;48.160;11.452;2024-02-21T03:51:35;5.20;99.90
30473;DHT22;17263;48.160;11.452;2024-02-21T03:54:01;5.20;99.90
30473;DHT22;17263;48.160;11.452;2024-02-21T03:56:27;5.20;99.90
30473;DHT22;17263;48.160;11.452;2024-02-21T03:58:53;5.20;99.90
30473;DHT22;17263;48.160;11.452;2024-02-21T04:01:19;5.20;99.90
30473;DHT22;17263;48.160;11.452;2024-02-21T04:03:45;5.10;99.90
30473;DHT22;17263;48.160;11.452;2024-02-21T04:06:11;5.20;99.90
30473;DHT22;17263;48.160;11.452;2024-02-21T04:08:38;5.10;99.90
30473;DHT22;17263;48.160;11.452;2024-02-21T04:11:04;5.10;99.90
30473;DHT22;17263;48.160;11.452;2024-02-21T04:13:30;5.10;99.90
30473;DHT22;17263;48.160;11.452;2024-02-21T04:15:56;5.10;99.90
30473;DHT22;17263;48.160;11.452;2024-02-21T04:18:22;5.00;99.90
30473;DHT22;17263;48.160;11.452;2024-02-21T04:20:50;5.00;99.90
30473;DHT22;17263;48.160;11.452;2024-02-21T04:23:16;5.00;99.90
30473;DHT22;17263;48.160;11.452;2024-02-21T04:25:42;4.90;99.90
30473;DHT22;17263;48.160;11.452;2024-02-21T04:28:08;4.90;99.90
30473;DHT22;17263;48.160;11.452;2024-02-21T04:30:34;4.90;99.90
30473;DHT22;17263;48.160;11.452;2024-02-21T04:33:00;4.90;99.90
30473;DHT22;17263;48.160;11.452;2024-02-21T04:35:26;4.80;99.90
30473;DHT22;17263;48.160;11.452;2024-02-21T04:37:52;4.80;99.90
30473;DHT22;17263;48.160;11.452;2024-02-21T04:40:18;4.80;99.90
30473;DHT22;17263;48.160;11.452;2024-02-21T04:42:45;4.80;99.90
30473;DHT22;17263;48.160;11.452;2024-02-21T04:45:11;4.80;99.90
30473;DHT22;17263;48.160;11.452;2024-02-21T04:47:37;4.80;99.90
30473;DHT22;17263;48.160;11.452;2024-02-21T04:50:03;4.70;99.90
30473;DHT22;17263;48.160;11.452;2024-02-21T04:52:29;4.70;99.90
30473;DHT22;17263;48.160;11.452;2024-02-21T04:54:55;4.70;99.90
30473;DHT22;17263;48.160;11.452;2024-02-21T04:57:21;4.60;99.90
30473;DHT22;17263;48.160;11.452;2024-02-21T04:59:47;4.50;99.90
30473;DHT22;17263;48.160;11.452;2024-02-21T05:02:14;4.50;99.90
30473;DHT22;17263;48.160;11.452;2024-02-21T05:04:41;4.50;99.90
30473;DHT22;17263;48.160;11.452;2024-02-21T05:07:07;4.40;99.90
30473;DHT22;17263;48.160;11.452;2024-02-21T05:09:33;4.40;99.90
30473;DHT22;17263;48.160;11.452;2024-02-21T05:11:59;4.40;99.90
30473;DHT22;17263;48.160;11.452;2024-02-21T05:14:26;4.30;99.90
30473;DHT22;17263;48.160;11.452;2024-02-21T05:16:55;4.40;99.90
30473;DHT22;17263;48.160;11.452;2024-02-21T05:19:21;4.30;99.90
30473;DHT22;17263;48.160;11.452;2024-02-21T05:21:47;4.30;99.90
30473;DHT22;17263;48.160;11.452;2024-02-21T05:24:13;4.30;99.90
30473;DHT22;17263;48.160;11.452;2024-02-21T05:26:39;4.30;99.90
30473;DHT22;17263;48.160;11.452;2024-02-21T05:29:05;4.30;99.90
30473;DHT22;17263;48.160;11.452;2024-02-21T05:34:17;4.30;99.90
30473;DHT22;17263;48.160;11.452;2024-02-21T05:36:44;4.30;99.90
30473;DHT22;17263;48.160;11.452;2024-02-21T05:39:10;4.30;99.90
30473;DHT22;17263;48.160;11.452;2024-02-21T05:41:36;4.30;99.90
30473;DHT22;17263;48.160;11.452;2024-02-21T05:44:02;4.40;99.90
30473;DHT22;17263;48.160;11.452;2024-02-21T05:46:28;4.40;99.90
30473;DHT22;17263;48.160;11.452;2024-02-21T05:48:54;4.30;99.90
30473;DHT22;17263;48.160;11.452;2024-02-21T05:51:20;4.30;99.90
30473;DHT22;17263;48.160;11.452;2024-02-21T05:53:46;4.30;99.90
30473;DHT22;17263;48.160;11.452;2024-02-21T05:56:13;4.30;99.90
30473;DHT22;17263;48.160;11.452;2024-02-21T05:58:39;4.30;99.90
30473;DHT22;17263;48.160;11.452;2024-02-21T06:01:07;4.30;99.90
30473;DHT22;17263;48.160;11.452;2024-02-21T06:03:34;4.30;99.90
30473;DHT22;17263;48.160;11.452;2024-02-21T06:06:00;4.20;99.90
30473;DHT22;17263;48.160;11.452;2024-02-21T06:08:26;4.20;99.90
30473;DHT22;17263;48.160;11.452;2024-02-21T06:10:52;4.10;99.90
30473;DHT22;17263;48.160;11.452;2024-02-21T06:13:23;4.10;99.90
30473;DHT22;17263;48.160;11.452;2024-02-21T06:15:49;4.10;99.90
30473;DHT22;17263;48.160;11.452;2024-02-21T06:18:19;4.20;99.90
30473;DHT22;17263;48.160;11.452;2024-02-21T06:20:46;4.20;99.90
30473;DHT22;17263;48.160;11.452;2024-02-21T06:23:21;4.30;99.90
30473;DHT22;17263;48.160;11.452;2024-02-21T06:25:47;4.30;99.90
30473;DHT22;17263;48.160;11.452;2024-02-21T06:28:13;4.20;99.90
30473;DHT22;17263;48.160;11.452;2024-02-21T06:30:40;4.30;99.90
30473;DHT22;17263;48.160;11.452;2024-02-21T06:33:06;4.30;99.90
30473;DHT22;17263;48.160;11.452;2024-02-21T06:35:34;4.30;99.90
30473;DHT22;17263;48.160;11.452;2024-02-21T06:38:00;4.30;99.90
30473;DHT22;17263;48.160;11.452;2024-02-21T06:40:26;4.30;99.90
30473;DHT22;17263;48.160;11.452;2024-02-21T06:42:52;4.40;99.90
30473;DHT22;17263;48.160;11.452;2024-02-21T06:45:18;4.50;99.90
30473;DHT22;17263;48.160;11.452;2024-02-21T06:47:44;4.50;99.90
30473;DHT22;17263;48.160;11.452;2024-02-21T06:50:11;4.60;99.90
30473;DHT22;17263;48.160;11.452;2024-02-21T06:52:37;4.60;99.90
30473;DHT22;17263;48.160;11.452;2024-02-21T06:55:03;4.60;99.90
30473;DHT22;17263;48.160;11.452;2024-02-21T06:57:29;4.60;99.90
30473;DHT22;17263;48.160;11.452;2024-02-21T06:59:55;4.70;99.90
30473;DHT22;17263;48.160;11.452;2024-02-21T07:02:21;4.70;99.90
30473;DHT22;17263;48.160;11.452;2024-02-21T07:04:47;4.80;99.90
30473;DHT22;17263;48.160;11.452;2024-02-21T07:07:14;4.80;99.90
30473;DHT22;17263;48.160;11.452;2024-02-21T07:09:40;4.90;99.90
30473;DHT22;17263;48.160;11.452;2024-02-21T07:12:06;4.90;99.90
30473;DHT22;17263;48.160;11.452;2024-02-21T07:14:32;5.00;99.90
30473;DHT22;17263;48.160;11.452;2024-02-21T07:16:59;5.00;99.90
30473;DHT22;17263;48.160;11.452;2024-02-21T07:19:25;5.10;99.90
30473;DHT22;17263;48.160;11.452;2024-02-21T07:21:51;5.10;99.90
30473;DHT22;17263;48.160;11.452;2024-02-21T07:24:17;5.10;99.90
30473;DHT22;17263;48.160;11.452;2024-02-21T07:26:43;5.20;99.90
30473;DHT22;17263;48.160;11.452;2024-02-21T07:29:10;5.30;99.90
30473;DHT22;17263;48.160;11.452;2024-02-21T07:31:42;5.30;99.90
30473;DHT22;17263;48.160;11.452;2024-02-21T07:34:09;5.40;99.90
30473;DHT22;17263;48.160;11.452;2024-02-21T07:36:35;5.40;99.90
30473;DHT22;17263;48.160;11.452;2024-02-21T07:39:01;5.50;99.90
30473;DHT22;17263;48.160;11.452;2024-02-21T07:41:27;5.60;99.90
30473;DHT22;17263;48.160;11.452;2024-02-21T07:43:56;5.60;99.90
30473;DHT22;17263;48.160;11.452;2024-02-21T07:46:22;5.70;99.90
30473;DHT22;17263;48.160;11.452;2024-02-21T07:48:49;5.70;99.90
30473;DHT22;17263;48.160;11.452;2024-02-21T07:51:15;5.80;99.90
30473;DHT22;17263;48.160;11.452;2024-02-21T07:53:44;6.00;99.90
30473;DHT22;17263;48.160;11.452;2024-02-21T07:56:14;6.10;99.90
30473;DHT22;17263;48.160;11.452;2024-02-21T07:58:41;6.20;99.90
30473;DHT22;17263;48.160;11.452;2024-02-21T08:01:08;6.30;99.90
30473;DHT22;17263;48.160;11.452;2024-02-21T08:03:34;6.30;99.90
30473;DHT22;17263;48.160;11.452;2024-02-21T08:06:00;6.40;99.90
30473;DHT22;17263;48.160;11.452;2024-02-21T08:08:27;6.40;99.90
30473;DHT22;17263;48.160;11.452;2024-02-21T08:10:53;6.40;99.90
30473;DHT22;17263;48.160;11.452;2024-02-21T08:13:19;6.30;99.90
30473;DHT22;17263;48.160;11.452;2024-02-21T08:15:45;6.40;99.90
30473;DHT22;17263;48.160;11.452;2024-02-21T08:18:11;6.40;99.90
30473;DHT22;17263;48.160;11.452;2024-02-21T08:20:37;6.40;99.90
30473;DHT22;17263;48.160;11.452;2024-02-21T08:23:03;6.50;99.90
30473;DHT22;17263;48.160;11.452;2024-02-21T08:25:29;6.60;99.90
30473;DHT22;17263;48.160;11.452;2024-02-21T08:27:57;6.60;99.90
30473;DHT22;17263;48.160;11.452;2024-02-21T08:30:24;6.70;99.90
30473;DHT22;17263;48.160;11.452;2024-02-21T08:32:50;6.90;99.90
30473;DHT22;17263;48.160;11.452;2024-02-21T08:35:16;7.00;99.90
30473;DHT22;17263;48.160;11.452;2024-02-21T08:37:44;7.20;99.90
30473;DHT22;17263;48.160;11.452;2024-02-21T08:40:13;7.60;99.90
30473;DHT22;17263;48.160;11.452;2024-02-21T08:42:39;8.20;99.90
30473;DHT22;17263;48.160;11.452;2024-02-21T08:45:05;9.10;99.90
30473;DHT22;17263;48.160;11.452;2024-02-21T08:47:31;9.90;99.90
30473;DHT22;17263;48.160;11.452;2024-02-21T08:49:57;10.50;99.90
30473;DHT22;17263;48.160;11.452;2024-02-21T08:52:23;10.80;99.90
30473;DHT22;17263;48.160;11.452;2024-02-21T08:54:49;10.90;99.90
30473;DHT22;17263;48.160;11.452;2024-02-21T08:57:19;10.80;99.90
30473;DHT22;17263;48.160;11.452;2024-02-21T08:59:45;10.90;99.90
30473;DHT22;17263;48.160;11.452;2024-02-21T09:02:13;10.80;99.90
30473;DHT22;17263;48.160;11.452;2024-02-21T09:04:39;10.70;99.90
30473;DHT22;17263;48.160;11.452;2024-02-21T09:07:05;10.70;99.90
30473;DHT22;17263;48.160;11.452;2024-02-21T09:09:31;10.90;99.90
30473;DHT22;17263;48.160;11.452;2024-02-21T09:11:59;11.00;99.90
30473;DHT22;17263;48.160;11.452;2024-02-21T09:14:32;11.10;99.90
30473;DHT22;17263;48.160;11.452;2024-02-21T09:16:58;11.20;99.90
30473;DHT22;17263;48.160;11.452;2024-02-21T09:19:24;11.30;99.90
30473;DHT22;17263;48.160;11.452;2024-02-21T09:21:50;11.20;99.90
30473;DHT22;17263;48.160;11.452;2024-02-21T09:24:17;11.10;99.90
30473;DHT22;17263;48.160;11.452;2024-02-21T09:26:43;11.00;99.90
30473;DHT22;17263;48.160;11.452;2024-02-21T09:29:09;11.10;99.90
30473;DHT22;17263;48.160;11.452;2024-02-21T09:31:35;11.10;99.90
30473;DHT22;17263;48.160;11.452;2024-02-21T09:34:02;11.10;99.90
30473;DHT22;17263;48.160;11.452;2024-02-21T09:36:28;11.20;99.90
30473;DHT22;17263;48.160;11.452;2024-02-21T09:38:54;11.40;99.90
30473;DHT22;17263;48.160;11.452;2024-02-21T09:41:27;11.30;99.90
30473;DHT22;17263;48.160;11.452;2024-02-21T09:43:53;11.30;99.90
30473;DHT22;17263;48.160;11.452;2024-02-21T09:46:24;11.30;99.90
30473;DHT22;17263;48.160;11.452;2024-02-21T09:49:21;11.30;99.90
30473;DHT22;17263;48.160;11.452;2024-02-21T09:51:51;11.20;99.90
30473;DHT22;17263;48.160;11.452;2024-02-21T09:54:19;11.30;99.90
30473;DHT22;17263;48.160;11.452;2024-02-21T09:56:47;11.30;99.90
30473;DHT22;17263;48.160;11.452;2024-02-21T09:59:16;11.10;99.90
30473;DHT22;17263;48.160;11.452;2024-02-21T10:01:43;11.10;99.90
30473;DHT22;17263;48.160;11.452;2024-02-21T10:04:10;11.00;99.90
30473;DHT22;17263;48.160;11.452;2024-02-21T10:06:36;11.10;99.90
30473;DHT22;17263;48.160;11.452;2024-02-21T10:09:08;11.10;99.90
30473;DHT22;17263;48.160;11.452;2024-02-21T10:11:34;11.20;99.90
30473;DHT22;17263;48.160;11.452;2024-02-21T10:14:08;11.20;99.90
30473;DHT22;17263;48.160;11.452;2024-02-21T10:16:34;11.10;99.90
30473;DHT22;17263;48.160;11.452;2024-02-21T10:19:00;11.10;99.90
30473;DHT22;17263;48.160;11.452;2024-02-21T10:21:26;11.00;99.90
30473;DHT22;17263;48.160;11.452;2024-02-21T10:23:52;11.00;99.90
30473;DHT22;17263;48.160;11.452;2024-02-21T10:26:19;11.10;99.90
30473;DHT22;17263;48.160;11.452;2024-02-21T10:28:46;11.10;99.90
30473;DHT22;17263;48.160;11.452;2024-02-21T10:31:26;11.10;99.90
30473;DHT22;17263;48.160;11.452;2024-02-21T10:33:57;11.10;99.90
30473;DHT22;17263;48.160;11.452;2024-02-21T10:36:24;11.20;99.90
30473;DHT22;17263;48.160;11.452;2024-02-21T10:38:51;11.20;99.90
30473;DHT22;17263;48.160;11.452;2024-02-21T10:41:19;11.10;99.90
30473;DHT22;17263;48.160;11.452;2024-02-21T10:43:52;11.10;99.90
30473;DHT22;17263;48.160;11.452;2024-02-21T10:46:21;11.20;99.90
30473;DHT22;17263;48.160;11.452;2024-02-21T10:48:48;11.20;99.90
30473;DHT22;17263;48.160;11.452;2024-02-21T10:51:18;11.30;99.90
30473;DHT22;17263;48.160;11.452;2024-02-21T10:56:33;11.40;99.90
30473;DHT22;17263;48.160;11.452;2024-02-21T10:59:04;11.40;99.90
30473;DHT22;17263;48.160;11.452;2024-02-21T11:01:31;11.50;99.90
30473;DHT22;17263;48.160;11.452;2024-02-21T11:03:59;11.60;99.90
30473;DHT22;17263;48.160;11.452;2024-02-21T11:06:27;11.70;99.70
30473;DHT22;17263;48.160;11.452;2024-02-21T11:09:01;11.80;99.70
30473;DHT22;17263;48.160;11.452;2024-02-21T11:11:29;11.80;99.40
30473;DHT22;17263;48.160;11.452;2024-02-21T11:14:26;11.80;99.10
30473;DHT22;17263;48.160;11.452;2024-02-21T11:16:52;11.90;99.20
30473;DHT22;17263;48.160;11.452;2024-02-21T11:19:22;12.00;98.10
30473;DHT22;17263;48.160;11.452;2024-02-21T11:21:50;12.00;97.70
30473;DHT22;17263;48.160;11.452;2024-02-21T11:26:57;12.10;97.00
30473;DHT22;17263;48.160;11.452;2024-02-21T11:29:33;12.20;96.20
30473;DHT22;17263;48.160;11.452;2024-02-21T11:32:02;12.30;95.50
30473;DHT22;17263;48.160;11.452;2024-02-21T11:34:28;12.20;95.30
30473;DHT22;17263;48.160;11.452;2024-02-21T11:36:55;12.20;94.60
30473;DHT22;17263;48.160;11.452;2024-02-21T11:39:23;12.30;94.50
30473;DHT22;17263;48.160;11.452;2024-02-21T11:44:30;12.40;93.30
30473;DHT22;17263;48.160;11.452;2024-02-21T11:46:56;12.40;92.60
30473;DHT22;17263;48.160;11.452;2024-02-21T11:49:25;12.30;92.40
30473;DHT22;17263;48.160;11.452;2024-02-21T11:52:02;12.30;92.50
30473;DHT22;17263;48.160;11.452;2024-02-21T11:54:31;12.40;92.30
30473;DHT22;17263;48.160;11.452;2024-02-21T11:56:58;12.30;91.70
30473;DHT22;17263;48.160;11.452;2024-02-21T11:59:24;12.50;91.80
30473;DHT22;17263;48.160;11.452;2024-02-21T12:01:50;12.60;92.10
30473;DHT22;17263;48.160;11.452;2024-02-21T12:04:18;12.50;91.50
30473;DHT22;17263;48.160;11.452;2024-02-21T12:06:45;12.60;91.60
30473;DHT22;17263;48.160;11.452;2024-02-21T12:09:15;12.70;90.40
30473;DHT22;17263;48.160;11.452;2024-02-21T12:11:45;12.70;90.40
30473;DHT22;17263;48.160;11.452;2024-02-21T12:14:16;12.70;90.30
30473;DHT22;17263;48.160;11.452;2024-02-21T12:16:42;12.70;89.70
30473;DHT22;17263;48.160;11.452;2024-02-21T12:19:13;12.80;89.50
30473;DHT22;17263;48.160;11.452;2024-02-21T12:21:39;12.80;89.10
30473;DHT22;17263;48.160;11.452;2024-02-21T12:24:16;12.90;87.60
30473;DHT22;17263;48.160;11.452;2024-02-21T12:26:42;12.80;87.40
30473;DHT22;17263;48.160;11.452;2024-02-21T12:29:09;12.80;87.00
30473;DHT22;17263;48.160;11.452;2024-02-21T12:31:38;12.80;87.20
30473;DHT22;17263;48.160;11.452;2024-02-21T12:34:05;12.80;87.50
30473;DHT22;17263;48.160;11.452;2024-02-21T12:36:40;12.90;86.20
30473;DHT22;17263;48.160;11.452;2024-02-21T12:39:07;12.90;87.10
30473;DHT22;17263;48.160;11.452;2024-02-21T12:41:35;13.00;85.70
30473;DHT22;17263;48.160;11.452;2024-02-21T12:44:07;12.90;85.70
30473;DHT22;17263;48.160;11.452;2024-02-21T12:46:37;12.80;86.00
30473;DHT22;17263;48.160;11.452;2024-02-21T12:49:04;12.80;83.70
30473;DHT22;17263;48.160;11.452;2024-02-21T12:51:31;12.80;83.30
30473;DHT22;17263;48.160;11.452;2024-02-21T12:53:57;12.80;82.50
30473;DHT22;17263;48.160;11.452;2024-02-21T12:56:23;12.70;83.00
30473;DHT22;17263;48.160;11.452;2024-02-21T12:58:50;12.70;81.90
30473;DHT22;17263;48.160;11.452;2024-02-21T13:01:16;12.70;81.90
30473;DHT22;17263;48.160;11.452;2024-02-21T13:03:42;12.80;82.40
30473;DHT22;17263;48.160;11.452;2024-02-21T13:06:08;12.70;82.60
30473;DHT22;17263;48.160;11.452;2024-02-21T13:08:38;12.80;84.30
30473;DHT22;17263;48.160;11.452;2024-02-21T13:11:04;12.80;84.30
30473;DHT22;17263;48.160;11.452;2024-02-21T13:13:30;12.70;83.00
30473;DHT22;17263;48.160;11.452;2024-02-21T13:15:57;12.70;83.20
30473;DHT22;17263;48.160;11.452;2024-02-21T13:18:23;12.60;83.60
30473;DHT22;17263;48.160;11.452;2024-02-21T13:20:49;12.70;83.50
30473;DHT22;17263;48.160;11.452;2024-02-21T13:23:16;12.70;84.20
30473;DHT22;17263;48.160;11.452;2024-02-21T13:25:42;12.70;84.60
30473;DHT22;17263;48.160;11.452;2024-02-21T13:28:09;12.70;83.60
30473;DHT22;17263;48.160;11.452;2024-02-21T13:30:35;12.70;81.60
30473;DHT22;17263;48.160;11.452;2024-02-21T13:33:01;12.70;81.10
30473;DHT22;17263;48.160;11.452;2024-02-21T13:35:29;12.80;81.90
30473;DHT22;17263;48.160;11.452;2024-02-21T13:37:55;12.80;81.90
30473;DHT22;17263;48.160;11.452;2024-02-21T13:40:21;12.80;82.30
30473;DHT22;17263;48.160;11.452;2024-02-21T13:42:47;12.90;82.50
30473;DHT22;17263;48.160;11.452;2024-02-21T13:45:14;12.90;81.80
30473;DHT22;17263;48.160;11.452;2024-02-21T13:47:40;12.80;81.70
30473;DHT22;17263;48.160;11.452;2024-02-21T13:50:06;12.80;81.30
30473;DHT22;17263;48.160;11.452;2024-02-21T13:52:37;12.80;79.70
30473;DHT22;17263;48.160;11.452;2024-02-21T13:55:03;12.80;80.00
30473;DHT22;17263;48.160;11.452;2024-02-21T13:57:29;12.90;80.10
30473;DHT22;17263;48.160;11.452;2024-02-21T13:59:55;12.90;80.30
30473;DHT22;17263;48.160;11.452;2024-02-21T14:02:21;13.10;80.00
30473;DHT22;17263;48.160;11.452;2024-02-21T14:04:47;13.00;79.90
30473;DHT22;17263;48.160;11.452;2024-02-21T14:07:13;12.90;79.90
30473;DHT22;17263;48.160;11.452;2024-02-21T14:09:39;12.80;80.10
30473;DHT22;17263;48.160;11.452;2024-02-21T14:12:06;12.80;79.90
30473;DHT22;17263;48.160;11.452;2024-02-21T14:14:35;12.80;80.20
30473;DHT22;17263;48.160;11.452;2024-02-21T14:17:02;12.80;79.10
30473;DHT22;17263;48.160;11.452;2024-02-21T14:19:30;12.80;79.60
30473;DHT22;17263;48.160;11.452;2024-02-21T14:21:56;12.80;80.40
30473;DHT22;17263;48.160;11.452;2024-02-21T14:24:23;12.80;80.80
30473;DHT22;17263;48.160;11.452;2024-02-21T14:26:49;12.80;81.50
30473;DHT22;17263;48.160;11.452;2024-02-21T14:29:15;12.80;82.10
30473;DHT22;17263;48.160;11.452;2024-02-21T14:31:41;12.70;81.00
30473;DHT22;17263;48.160;11.452;2024-02-21T14:34:08;12.60;80.10
30473;DHT22;17263;48.160;11.452;2024-02-21T14:36:34;12.60;80.80
30473;DHT22;17263;48.160;11.452;2024-02-21T14:39:00;12.60;81.40
30473;DHT22;17263;48.160;11.452;2024-02-21T14:41:26;12.70;82.10
30473;DHT22;17263;48.160;11.452;2024-02-21T14:43:53;12.70;81.40
30473;DHT22;17263;48.160;11.452;2024-02-21T14:46:21;12.70;81.50
30473;DHT22;17263;48.160;11.452;2024-02-21T14:48:47;12.70;81.40
30473;DHT22;17263;48.160;11.452;2024-02-21T14:51:13;12.60;81.10
30473;DHT22;17263;48.160;11.452;2024-02-21T14:53:39;12.60;81.80
30473;DHT22;17263;48.160;11.452;2024-02-21T14:56:12;12.60;82.60
30473;DHT22;17263;48.160;11.452;2024-02-21T14:58:39;12.50;83.20
30473;DHT22;17263;48.160;11.452;2024-02-21T15:01:05;12.40;83.90
30473;DHT22;17263;48.160;11.452;2024-02-21T15:03:33;12.30;84.10
30473;DHT22;17263;48.160;11.452;2024-02-21T15:05:59;12.30;84.40
30473;DHT22;17263;48.160;11.452;2024-02-21T15:08:28;12.40;85.40
30473;DHT22;17263;48.160;11.452;2024-02-21T15:10:54;12.30;85.50
30473;DHT22;17263;48.160;11.452;2024-02-21T15:13:21;12.30;85.00
30473;DHT22;17263;48.160;11.452;2024-02-21T15:15:48;12.20;85.60
30473;DHT22;17263;48.160;11.452;2024-02-21T15:18:15;12.20;85.60
30473;DHT22;17263;48.160;11.452;2024-02-21T15:20:41;12.10;86.10
30473;DHT22;17263;48.160;11.452;2024-02-21T15:23:07;12.10;86.50
30473;DHT22;17263;48.160;11.452;2024-02-21T15:25:33;11.90;86.90
30473;DHT22;17263;48.160;11.452;2024-02-21T15:28:00;11.90;87.10
30473;DHT22;17263;48.160;11.452;2024-02-21T15:30:26;11.80;87.30
30473;DHT22;17263;48.160;11.452;2024-02-21T15:32:58;11.80;87.60
30473;DHT22;17263;48.160;11.452;2024-02-21T15:35:30;11.80;88.10